CSUN New Campus Station -PST Time - Most Recent Data on bottom of page




           Date/Time      Avg      Avg      Max     Wind      Avg      Max      Min      Avg      Avg    Total      Avg     Batt
                         Wind     Wind     Wind      Dir     Temp     Temp     Temp       RH      Bar     Rain    Solar     Volt
                      Spd MPH      Dir  Spd MPH   at Max    Deg_F    Deg_F    Deg_F        % Press_mb   Inches     W/m2      Min
--------------------------------------------------------------------------------------------------------------------------------
    02/17/2018 00:00      1.4      332      2.4      318     50.5     50.9     49.9       35     1018     0.00        0     13.4
    02/17/2018 00:15      1.4      335      2.2      343     50.0     50.4     49.5       34     1018     0.00        0     13.4
    02/17/2018 00:30      0.3       88      1.1      111     49.3     50.2     48.7       37     1018     0.00        0     13.4
    02/17/2018 00:45      0.0        0      0.0       99     48.7     48.9     48.5       39     1018     0.00        0     13.4
    02/17/2018 01:00      0.0      291      1.2      291     48.1     48.7     47.8       37     1018     0.00        0     13.4
    02/17/2018 01:15      0.8      288      1.2      290     48.1     48.8     47.6       37     1018     0.00        0     13.5
    02/17/2018 01:30      0.6      315      1.5      294     47.7     48.0     47.5       36     1018     0.00        0     13.5
    02/17/2018 01:45      0.3      354      1.6      336     47.1     47.8     46.4       40     1018     0.00        0     13.5
    02/17/2018 02:00      0.6      336      1.9      341     46.6     46.9     46.4       41     1018     0.00        0     13.5
    02/17/2018 02:15      0.0      339      0.8      343     46.7     47.0     46.3       40     1018     0.00        0     13.5
    02/17/2018 02:30      0.2      348      1.4      341     46.9     47.1     46.7       40     1018     0.00        0     13.5
    02/17/2018 02:45      0.1      349      1.4      347     46.3     46.7     46.0       41     1018     0.00        0     13.5
    02/17/2018 03:00      1.1      341      2.0      344     46.1     46.4     45.8       38     1018     0.00        0     13.5
    02/17/2018 03:15      0.8      329      1.8      334     45.9     46.5     45.2       41     1018     0.00        0     13.5
    02/17/2018 03:30      1.1      330      1.5      337     45.5     46.0     45.2       38     1018     0.00        0     13.5
    02/17/2018 03:45      0.9      333      1.8      342     46.2     46.5     45.6       38     1018     0.00        0     13.5
    02/17/2018 04:00      1.2      336      1.8      330     45.6     46.3     45.2       39     1017     0.00        0     13.5
    02/17/2018 04:15      1.0      341      2.1      340     45.6     46.0     45.2       37     1017     0.00        0     13.5
    02/17/2018 04:30      0.1       52      1.3       49     45.4     45.8     45.0       40     1017     0.00        0     13.5
    02/17/2018 04:45      0.4      326      1.5      326     44.6     45.2     44.1       40     1017     0.00        0     13.5
    02/17/2018 05:00      0.3      332      1.4      343     44.3     44.6     43.9       40     1017     0.00        0     13.5
    02/17/2018 05:15      0.8      329      1.7      342     44.4     44.6     44.1       41     1017     0.00        0     13.5
    02/17/2018 05:30      0.3      326      1.1      334     44.2     44.5     43.8       42     1017     0.00        0     13.5
    02/17/2018 05:45      0.3       43      1.1       63     43.7     44.0     43.4       44     1017     0.00        0     13.5
    02/17/2018 06:00      0.8       37      1.9       55     43.5     44.1     43.2       43     1017     0.00        0     13.5
    02/17/2018 06:15      0.8      344      2.1      339     44.3     45.0     43.6       40     1018     0.00        0     13.5
    02/17/2018 06:30      0.0      345      0.8      347     44.1     44.8     43.6       41     1018     0.00        0     13.5
    02/17/2018 06:45      0.3      338      2.0      340     43.3     43.7     42.7       43     1018     0.00        4     13.5
    02/17/2018 07:00      0.9      304      2.0      339     42.7     43.0     42.4       44     1018     0.00       14     13.5
    02/17/2018 07:15      0.6      318      1.9      330     43.0     43.7     42.6       43     1018     0.00       18     13.5
    02/17/2018 07:30      0.0      122      1.0      333     44.5     45.8     43.5       41     1018     0.00      103     13.5
    02/17/2018 07:45      0.4      276      2.0      270     47.7     49.4     45.8       38     1019     0.00      149     13.5
    02/17/2018 08:00      0.9      281      2.1      318     51.7     54.1     49.4       28     1019     0.00      194     13.4
    02/17/2018 08:15      1.7      254      2.6      265     55.4     57.0     53.8       18     1019     0.00      240     13.3
    02/17/2018 08:30      1.4      228      3.0      235     57.9     58.7     56.9       21     1019     0.00      213     13.3
    02/17/2018 08:45      2.3      205      3.8      212     58.4     59.1     57.9       23     1019     0.00      213     13.3
    02/17/2018 09:00      2.1      222      3.7      183     59.5     60.3     58.8       22     1019     0.00      262     13.2
    02/17/2018 09:15      2.4      197      5.5      192     61.3     62.0     60.2       18     1019     0.00      416     13.2
    02/17/2018 09:30      1.7      210      3.9      186     63.0     63.9     61.9       16     1019     0.00      455     13.2
    02/17/2018 09:45      2.2      188      4.3      187     64.7     65.8     63.8       16     1019     0.00      494     13.1
    02/17/2018 10:00      1.8      208      3.9      187     65.8     66.5     65.2       15     1019     0.00      529     13.1
    02/17/2018 10:15      1.3      177      2.2      182     67.3     68.7     66.5       13     1019     0.00      562     13.1
    02/17/2018 10:30      1.3      132      3.9      165     69.4     69.6     68.6       13     1019     0.00      591     13.1
    02/17/2018 10:45      2.4      156      5.7      144     69.9     70.7     69.1       12     1019     0.00      617     13.1
    02/17/2018 11:00      2.7      168      6.1      165     70.8     71.1     70.3       12     1019     0.00      637     13.0
    02/17/2018 11:15      2.7      154      7.0      163     71.7     72.9     70.7       11     1019     0.00      655     13.0
    02/17/2018 11:30      2.7      156      7.7      143     72.2     72.8     71.3       11     1019     0.00      671     13.0
    02/17/2018 11:45      2.1      247      4.4      240     72.4     73.0     71.7       10     1019     0.00      680     13.0
    02/17/2018 12:00      2.5      181      5.9      164     73.0     73.9     72.6       10     1018     0.00      686     13.0
    02/17/2018 12:15      2.9      180      8.8      187     73.5     74.7     72.8       12     1018     0.00      689     13.0
    02/17/2018 12:30      4.1      152      9.7      168     73.7     74.3     72.9       12     1018     0.00      689     13.0
    02/17/2018 12:45      4.2      173      8.6      206     73.7     74.5     73.0       11     1018     0.00      680     13.0
    02/17/2018 13:00      3.5      158      9.0      180     74.5     75.5     73.6       10     1017     0.00      671     13.0
    02/17/2018 13:15      2.8      150      7.3      148     74.4     75.0     73.9       13     1017     0.00      658     13.0
    02/17/2018 13:30      5.1      169      9.0      166     74.8     75.7     74.0       11     1017     0.00      640     13.0
    02/17/2018 13:45      2.0       88      4.8      136     74.9     75.6     74.2       11     1017     0.00      616     13.0
    02/17/2018 14:00      2.0       74      6.1      149     74.6     75.3     73.9       12     1016     0.00      589     13.0
    02/17/2018 14:15      3.7      172     10.1      161     76.0     76.7     75.3       11     1016     0.00      561     13.0
    02/17/2018 14:30      3.8      152      8.6      168     75.5     76.0     75.1       11     1016     0.00      531     13.0
    02/17/2018 14:45      3.7      138     10.4      175     75.6     76.3     74.8       12     1016     0.00      497     13.0
    02/17/2018 15:00      5.2      141     10.3      136     75.4     76.1     74.6       11     1016     0.00      461     13.0
    02/17/2018 15:15      3.7      138     10.3      157     75.2     75.7     74.7       12     1016     0.00      422     13.0
    02/17/2018 15:30      4.2      153      9.0      161     75.6     76.0     75.3       12     1016     0.00      382     13.0
    02/17/2018 15:45      4.3      187      9.1      164     75.3     76.0     74.8       14     1015     0.00      338     13.0
    02/17/2018 16:00      4.7      246     10.2      262     74.2     75.0     73.8       14     1015     0.00      293     13.0
    02/17/2018 16:15      4.5      260     10.5      250     73.3     73.9     72.3       15     1015     0.00      171     13.0
    02/17/2018 16:30      5.4      253     11.2      264     71.6     72.4     71.2       16     1015     0.00       41     13.0
    02/17/2018 16:45      6.6      261     13.2      247     70.7     71.2     70.0       17     1015     0.00       42     13.1
    02/17/2018 17:00      6.2      260     11.4      256     69.8     70.3     69.2       18     1015     0.00       37     13.1
    02/17/2018 17:15      4.1      269      8.8      253     69.0     69.5     68.4       20     1015     0.00       26     13.1
    02/17/2018 17:30      4.1      274      7.4      311     67.8     68.5     67.2       21     1016     0.00       14     13.1
    02/17/2018 17:45      4.2      264      9.9      254     66.7     67.4     66.0       23     1016     0.00        6     13.1
    02/17/2018 18:00      4.1      260      7.5      272     65.7     66.2     65.1       24     1016     0.00        1     13.2
    02/17/2018 18:15      3.6      258      6.5      258     64.7     65.3     64.2       25     1016     0.00        0     13.2
    02/17/2018 18:30      3.7      252      6.1      263     63.7     64.3     63.3       25     1016     0.00        0     13.2
    02/17/2018 18:45      3.9      250      6.0      253     63.0     63.5     62.6       27     1016     0.00        0     13.2
    02/17/2018 19:00      4.1      256      6.6      256     62.3     62.7     61.8       29     1016     0.00        0     13.2
    02/17/2018 19:15      2.9      256      4.9      244     61.6     62.2     60.9       31     1016     0.00        0     13.2
    02/17/2018 19:30      2.5      260      4.3      256     60.3     61.0     59.9       31     1016     0.00        0     13.2
    02/17/2018 19:45      1.3      250      3.6      266     59.9     60.3     59.0       32     1016     0.00        0     13.3
    02/17/2018 20:00      0.8      267      1.8      263     58.2     59.2     57.3       34     1016     0.00        0     13.3
    02/17/2018 20:15      1.4      274      3.2      264     57.0     57.5     56.7       35     1016     0.00        0     13.3
    02/17/2018 20:30      0.7      247      1.3      216     56.3     56.9     55.7       37     1016     0.00        0     13.3
    02/17/2018 20:45      0.7      295      1.5      267     55.6     55.9     55.4       36     1015     0.00        0     13.3
    02/17/2018 21:00      0.0      294      0.7      299     54.8     55.5     54.2       40     1015     0.00        0     13.3
    02/17/2018 21:15      0.8      236      2.1      209     53.9     54.5     53.4       41     1016     0.00        0     13.3
    02/17/2018 21:30      1.1      334      2.3      339     53.9     54.4     53.4       40     1016     0.00        0     13.3
    02/17/2018 21:45      1.1      338      1.9      336     53.4     53.9     53.0       42     1016     0.00        0     13.4
    02/17/2018 22:00      0.7      338      1.5      334     52.9     53.3     52.3       43     1016     0.00        0     13.4
    02/17/2018 22:15      0.0        0      0.0      339     51.9     52.5     51.6       43     1016     0.00        0     13.4
    02/17/2018 22:30      0.4        8      1.4      342     51.4     51.8     51.0       44     1016     0.00        0     13.4
    02/17/2018 22:45      0.9       19      1.8       50     51.2     51.6     50.9       44     1016     0.00        0     13.4
    02/17/2018 23:00      0.7       24      1.8      331     51.5     51.8     51.0       44     1016     0.00        0     13.4
    02/17/2018 23:15      0.8       16      1.7       84     50.4     51.1     49.9       47     1016     0.00        0     13.4
    02/17/2018 23:30      0.0      101      1.2      106     50.1     50.5     49.6       47     1015     0.00        0     13.4
    02/17/2018 23:45      0.2       23      1.1      342     49.2     49.8     48.8       50     1015     0.00        0     13.4
    02/18/2018 00:00      0.4      307      1.3      272     48.9     49.3     48.5       48     1015     0.00        0     13.4
    02/18/2018 00:15      0.7       19      1.6       76     48.9     49.5     48.4       49     1015     0.00        0     13.4
    02/18/2018 00:30      0.9      329      2.0      340     48.9     49.3     48.4       50     1015     0.00        0     13.4
    02/18/2018 00:45      1.3      330      2.4      325     48.5     48.8     48.2       49     1015     0.00        0     13.4
    02/18/2018 01:00      1.7      336      2.4      351     48.8     49.1     48.6       49     1015     0.00        0     13.4
    02/18/2018 01:15      0.2      326      1.4      338     47.9     49.0     47.0       52     1015     0.00        0     13.4
    02/18/2018 01:30      0.9      303      1.7      286     47.3     47.9     46.7       52     1015     0.00        0     13.4
    02/18/2018 01:45      0.9      318      2.1      336     46.9     47.2     46.6       53     1015     0.00        0     13.5
    02/18/2018 02:00      0.5       20      1.8       48     46.9     47.1     46.3       55     1015     0.00        0     13.5
    02/18/2018 02:15      0.2      319      1.1       23     46.0     46.4     45.7       55     1015     0.00        0     13.5
    02/18/2018 02:30      0.0      349      0.6      348     45.8     46.1     45.5       57     1015     0.00        0     13.5
    02/18/2018 02:45      1.0       37      1.7       65     45.9     46.1     45.5       55     1015     0.00        0     13.5
    02/18/2018 03:00      0.1       35      1.0       54     45.9     46.1     45.6       55     1014     0.00        0     13.5
    02/18/2018 03:15      0.5        7      1.5        5     46.0     46.1     45.8       55     1014     0.00        0     13.5
    02/18/2018 03:30      1.0        6      2.8        4     45.8     46.1     45.6       55     1014     0.00        0     13.5
    02/18/2018 03:45      1.3      347      2.1      350     45.3     45.8     44.9       53     1014     0.00        0     13.5
    02/18/2018 04:00      0.8      346      2.1      348     45.1     45.6     44.3       57     1014     0.00        0     13.5
    02/18/2018 04:15      0.0        0      0.0      345     44.5     44.8     44.2       57     1014     0.00        0     13.5
    02/18/2018 04:30      0.4      293      1.5      285     44.5     44.8     44.3       59     1014     0.00        0     13.5
    02/18/2018 04:45      0.2      304      0.9      305     44.3     44.6     43.8       58     1014     0.00        0     13.5
    02/18/2018 05:00      1.0      286      2.3      345     43.6     43.8     43.4       59     1014     0.00        0     13.5
    02/18/2018 05:15      0.8      330      2.3      334     44.3     44.7     43.5       57     1014     0.00        0     13.5
    02/18/2018 05:30      0.2      350      2.2      351     43.6     44.4     43.0       60     1014     0.00        0     13.5
    02/18/2018 05:45      1.0      323      2.2      344     44.0     44.5     43.2       58     1014     0.00        0     13.5
    02/18/2018 06:00      0.0      339      0.8      341     43.1     43.8     42.8       60     1014     0.00        0     13.5
    02/18/2018 06:15      1.0      332      2.1      345     43.4     44.1     42.9       60     1014     0.00        0     13.5
    02/18/2018 06:30      0.4      353      1.5      330     43.7     44.3     43.0       60     1014     0.00        0     13.5
    02/18/2018 06:45      0.9      357      2.2      346     43.0     43.5     42.8       61     1014     0.00        4     13.5
    02/18/2018 07:00      1.0      350      2.0      346     43.4     43.6     43.2       61     1014     0.00       16     13.5
    02/18/2018 07:15      0.4      341      1.3      346     44.0     44.4     43.5       61     1014     0.00       18     13.5
    02/18/2018 07:30      0.4      250      1.1      242     45.1     47.1     44.2       57     1014     0.00       98     13.5
    02/18/2018 07:45      0.4      255      1.3      254     49.4     51.3     47.1       47     1014     0.00      146     13.4
    02/18/2018 08:00      0.1      189      1.0      187     52.6     53.8     51.2       44     1014     0.00      191     13.4
    02/18/2018 08:15      0.0      123      0.6      102     54.4     56.1     53.3       39     1014     0.00      236     13.3
    02/18/2018 08:30      1.5       34      2.7       39     57.6     58.3     55.9       33     1014     0.00      232     13.3
    02/18/2018 08:45      1.2       87      4.0      154     58.7     59.5     57.8       35     1014     0.00      244     13.3
    02/18/2018 09:00      2.6      131      5.1      161     58.9     59.7     58.5       40     1014     0.00      321     13.2
    02/18/2018 09:15      2.6      128      5.7       72     59.3     59.8     58.7       38     1014     0.00      407     13.2
    02/18/2018 09:30      3.0      109      6.9       87     60.1     60.8     59.2       35     1014     0.00      446     13.2
    02/18/2018 09:45      3.4      116      8.7      146     60.7     61.1     60.3       35     1014     0.00      483     13.2
    02/18/2018 10:00      3.1      125      8.1       86     61.2     62.6     60.3       34     1014     0.00      518     13.2
    02/18/2018 10:15      3.3      119      7.4      109     63.0     63.6     62.4       33     1014     0.00      551     13.1
    02/18/2018 10:30      3.4      124     10.8      153     63.8     64.3     63.3       31     1014     0.00      578     13.1
    02/18/2018 10:45      4.3      127      9.8      154     64.0     64.6     63.5       31     1014     0.00      599     13.1
    02/18/2018 11:00      4.1      109     13.0      161     64.3     64.8     63.9       27     1014     0.00      625     13.1
    02/18/2018 11:15      5.6      129     11.1       99     65.5     66.2     64.6       25     1014     0.00      644     13.1
    02/18/2018 11:30      4.9      120     11.1      180     65.1     65.8     64.7       25     1013     0.00      656     13.1
    02/18/2018 11:45      4.6      103      9.3       95     65.2     65.8     64.3       22     1013     0.00      664     13.1
    02/18/2018 12:00      4.4      106      9.6       74     65.8     66.4     65.2       21     1013     0.00      672     13.1
    02/18/2018 12:15      3.6      117      8.1       87     66.0     66.6     65.4       22     1013     0.00      675     13.1
    02/18/2018 12:30      5.0      136     10.3      128     67.2     68.0     66.5       17     1012     0.00      676     13.1
    02/18/2018 12:45      5.2      115     11.7      145     66.8     67.4     66.5       20     1012     0.00      669     13.1
    02/18/2018 13:00      5.7      137     14.1      153     67.4     67.9     66.8       17     1012     0.00      664     13.1
    02/18/2018 13:15      5.4      138     10.5      175     67.0     67.9     66.2       18     1011     0.00      650     13.1
    02/18/2018 13:30      5.9      128     12.8      134     66.4     66.9     66.0       17     1011     0.00      632     13.1
    02/18/2018 13:45      5.5      137     11.9      159     66.7     67.4     66.1       18     1011     0.00      613     13.1
    02/18/2018 14:00      5.9      138     12.9      159     67.2     68.0     66.8       20     1011     0.00      590     13.1
    02/18/2018 14:15      4.8      126     11.4      134     66.8     67.4     66.2       20     1011     0.00      560     13.1
    02/18/2018 14:30      5.3      128     11.7      148     66.4     66.9     65.7       18     1011     0.00      528     13.1
    02/18/2018 14:45      5.0      131     12.8      163     65.6     65.9     65.2       21     1010     0.00      490     13.1
    02/18/2018 15:00      5.8      139     14.2      138     65.9     66.5     65.4       22     1010     0.00      452     13.1
    02/18/2018 15:15      6.2      151     14.4      145     65.9     66.3     65.5       21     1010     0.00      417     13.1
    02/18/2018 15:30      5.3      144     10.4      131     65.7     65.9     65.3       19     1010     0.00      381     13.1
    02/18/2018 15:45      5.0      137     11.6      163     65.1     65.6     64.7       21     1010     0.00      337     13.1
    02/18/2018 16:00      6.6      152     12.4      154     65.3     65.7     65.0       20     1010     0.00      293     13.1
    02/18/2018 16:15      7.4      164     11.3      147     64.3     65.3     63.0       23     1010     0.00      176     13.1
    02/18/2018 16:30      7.0      166     11.9      193     62.1     63.0     61.4       27     1010     0.00       42     13.1
    02/18/2018 16:45      7.4      168     12.2      165     60.9     61.8     60.5       32     1010     0.00       42     13.2
    02/18/2018 17:00      6.8      174     11.4      174     60.0     60.6     59.5       34     1010     0.00       39     13.2
    02/18/2018 17:15      6.9      183     10.1      177     59.2     59.8     58.5       41     1010     0.00       30     13.2
    02/18/2018 17:30      6.3      190      8.6      206     58.1     58.6     57.4       46     1010     0.00       16     13.2
    02/18/2018 17:45      5.5      185      7.8      204     56.9     57.5     56.4       50     1010     0.00        6     13.2
    02/18/2018 18:00      3.6      172      6.1      174     56.1     56.5     55.7       50     1010     0.00        1     13.3
    02/18/2018 18:15      2.9      146      5.7      161     55.5     55.9     55.0       52     1010     0.00        0     13.3
    02/18/2018 18:30      2.0      133      4.8      129     54.7     55.2     54.5       57     1010     0.00        0     13.3
    02/18/2018 18:45      2.2      119      5.5      134     54.4     54.7     53.9       60     1010     0.00        0     13.3
    02/18/2018 19:00      2.2      141      4.4      155     53.4     54.1     52.8       62     1010     0.00        0     13.3
    02/18/2018 19:15      2.1      146      3.8      128     52.6     52.9     52.2       64     1010     0.00        0     13.3
    02/18/2018 19:30      1.9      150      3.3      166     52.2     52.5     51.7       66     1010     0.00        0     13.3
    02/18/2018 19:45      1.4      132      2.6      130     51.6     52.1     51.2       70     1010     0.00        0     13.4
    02/18/2018 20:00      1.5      116      3.7      137     51.6     51.9     51.3       73     1010     0.00        0     13.4
    02/18/2018 20:15      1.8      120      5.0       99     51.3     51.6     51.0       76     1010     0.00        0     13.4
    02/18/2018 20:30      1.4      115      4.9       86     51.5     51.8     51.1       76     1010     0.00        0     13.4
    02/18/2018 20:45      0.7      115      2.4       96     51.4     51.6     51.1       77     1010     0.00        0     13.4
    02/18/2018 21:00      1.7      101      4.5      103     51.5     51.9     51.3       77     1010     0.00        0     13.4
    02/18/2018 21:15      1.8      121      3.8      160     51.8     52.0     51.6       76     1010     0.00        0     13.4
    02/18/2018 21:30      2.4      149      4.5      149     51.7     51.9     51.4       77     1010     0.00        0     13.4
    02/18/2018 21:45      2.4      130      4.7      146     52.0     52.4     51.7       76     1010     0.00        0     13.4
    02/18/2018 22:00      2.7      141      6.7      146     52.4     52.6     52.1       75     1010     0.00        0     13.4
    02/18/2018 22:15      2.7      141      6.4      156     52.3     52.5     52.2       76     1010     0.00        0     13.3
    02/18/2018 22:30      2.5      155      4.5      168     52.0     52.3     51.5       76     1010     0.00        0     13.3
    02/18/2018 22:45      3.6      170      4.9      176     51.1     51.7     50.7       75     1010     0.00        0     13.4
    02/18/2018 23:00      3.8      193      6.0      190     50.6     51.0     50.2       73     1009     0.00        0     13.4
    02/18/2018 23:15      1.6      234      3.2      185     49.9     50.3     49.3       74     1009     0.00        0     13.4
    02/18/2018 23:30      1.5      225      2.7      206     49.3     49.7     49.0       76     1009     0.00        0     13.4
    02/18/2018 23:45      2.8      186      4.7      169     49.2     49.4     48.8       75     1009     0.00        0     13.4
    02/19/2018 00:00      0.8      158      3.1      161     48.8     49.0     48.4       76     1009     0.00        0     13.4
    02/19/2018 00:15      1.7      239      3.2      241     48.1     48.5     47.8       77     1009     0.00        0     13.4
    02/19/2018 00:30      1.2      226      3.8      200     48.0     48.4     47.5       77     1009     0.00        0     13.4
    02/19/2018 00:45      1.8      233      5.0      260     47.6     47.8     47.2       76     1009     0.00        0     13.4
    02/19/2018 01:00      1.8      226      3.7      219     47.9     48.2     47.6       75     1009     0.00        0     13.4
    02/19/2018 01:15      1.0      228      2.2      212     48.0     48.2     47.8       75     1009     0.00        0     13.4
    02/19/2018 01:30      0.6      334      1.6      354     48.3     48.6     47.9       74     1008     0.00        0     13.4
    02/19/2018 01:45      1.1      133      2.3      143     48.5     48.8     48.3       74     1008     0.00        0     13.4
    02/19/2018 02:00      0.9      214      6.2        0     48.6     48.9     48.0       64     1009     0.00        0     13.4
    02/19/2018 02:15      2.8      336      6.5      333     48.9     49.4     48.0       46     1008     0.00        0     13.4
    02/19/2018 02:30      3.3      336     12.8      311     48.8     49.2     48.4       42     1008     0.00        0     13.4
    02/19/2018 02:45      3.7      338     11.4      314     48.4     48.7     48.2       41     1008     0.00        0     13.4
    02/19/2018 03:00      5.4      324     14.9        7     48.3     48.5     48.0       40     1008     0.00        0     13.4
    02/19/2018 03:15      4.8      336     14.9      330     48.3     48.5     48.2       36     1008     0.00        0     13.4
    02/19/2018 03:30      7.5      344     19.0      333     48.2     48.4     47.8       33     1008     0.00        0     13.4
    02/19/2018 03:45      7.8      344     23.4      325     47.8     48.0     47.6       32     1008     0.00        0     13.4
    02/19/2018 04:00      7.7      346     20.9      355     47.6     47.8     47.4       30     1008     0.00        0     13.4
    02/19/2018 04:15     10.2      347     22.4      353     47.4     47.7     47.1       30     1008     0.00        0     13.4
    02/19/2018 04:30      8.7      348     22.4      349     46.9     47.3     46.5       31     1008     0.00        0     13.4
    02/19/2018 04:45      8.1      339     24.2      329     46.5     46.8     46.2       30     1009     0.00        0     13.4
    02/19/2018 05:00      6.6      339     19.6      329     46.3     46.6     46.1       30     1009     0.00        0     13.4
    02/19/2018 05:15      7.2      333     18.2      343     46.1     46.5     45.7       32     1009     0.00        0     13.4
    02/19/2018 05:30      6.3      337     20.2       -1     45.5     45.9     45.1       34     1009     0.00        0     13.4
    02/19/2018 05:45      4.4      336     12.4        8     44.9     45.3     44.4       34     1010     0.00        0     13.5
    02/19/2018 06:00      5.8      341     15.6      343     44.5     44.7     44.2       34     1010     0.00        0     13.5
    02/19/2018 06:15      6.9      347     15.9      340     44.3     44.5     44.1       34     1010     0.00        0     13.5
    02/19/2018 06:30      6.6      346     15.2      340     44.1     44.3     43.9       35     1010     0.00        0     13.5
    02/19/2018 06:45      6.6      345     17.2        0     43.9     44.1     43.7       35     1010     0.00        5     13.5
    02/19/2018 07:00      6.9      350     15.9       20     43.8     43.9     43.6       35     1011     0.00       18     13.5
    02/19/2018 07:15      6.2      347     14.9       -0     43.9     44.2     43.7       35     1011     0.00       24     13.5
    02/19/2018 07:30      5.0      349     13.7      340     44.3     44.8     43.9       35     1011     0.00       99     13.5
    02/19/2018 07:45      5.4      340     12.8      337     45.0     45.6     44.5       33     1011     0.00      162     13.4
    02/19/2018 08:00      3.8      342     10.3      353     45.9     46.4     45.3       32     1011     0.00      208     13.4
    02/19/2018 08:15      4.0      343      8.5        2     46.7     47.1     46.1       31     1012     0.00      255     13.4
    02/19/2018 08:30      3.7      341     11.1      328     47.3     47.8     46.9       31     1012     0.00      298     13.4
    02/19/2018 08:45      3.6      337     11.8      353     48.0     48.9     47.4       31     1012     0.00      328     13.3
    02/19/2018 09:00      4.1      347     10.9      346     48.3     48.8     48.1       30     1012     0.00      388     13.3
    02/19/2018 09:15      5.3      357     11.4        7     48.6     49.1     48.3       28     1012     0.00      430     13.3
    02/19/2018 09:30      3.7      345     11.2      355     49.7     50.2     49.0       27     1012     0.00      469     13.3
    02/19/2018 09:45      4.0      353     10.3      353     50.3     50.7     49.8       26     1012     0.00      504     13.3
    02/19/2018 10:00      4.6      359     12.1       16     50.8     51.2     50.5       25     1012     0.00      538     13.3
    02/19/2018 10:15      2.6      294      7.1      261     51.5     52.5     50.6       25     1012     0.00      564     13.2
    02/19/2018 10:30      5.5      208     12.0      200     51.7     52.2     51.2       25     1012     0.00      590     13.2
    02/19/2018 10:45      4.0      138      7.9       91     52.4     53.5     51.8       22     1012     0.00      625     13.2
    02/19/2018 11:00      4.0      246     14.5      252     53.1     53.6     52.4       17     1012     0.00      644     13.2
    02/19/2018 11:15      5.0      218     12.5      184     53.6     54.1     52.8       17     1011     0.00      702     13.2
    02/19/2018 11:30      2.9      273      7.2      229     54.0     55.3     53.2       16     1011     0.00      680     13.2
    02/19/2018 11:45      6.1      247     14.1      244     54.9     55.3     54.3       16     1011     0.00      760     13.2
    02/19/2018 12:00      7.2      243     21.2      250     55.0     55.5     54.4       17     1011     0.00      763     13.2
    02/19/2018 12:15      7.5      251     15.9      260     55.6     56.1     55.0       17     1010     0.00      730     13.2
    02/19/2018 12:30      8.3      255     17.1      255     55.7     56.4     55.2       20     1010     0.00      726     13.2
    02/19/2018 12:45      9.1      254     18.6      261     55.8     56.4     55.2       20     1010     0.00      728     13.2
    02/19/2018 13:00      8.5      248     20.3      254     56.1     56.8     55.4       17     1010     0.00      742     13.2
    02/19/2018 13:15     10.2      264     21.5      252     55.9     56.6     55.2       16     1010     0.00      659     13.2
    02/19/2018 13:30      7.7      264     16.1      245     54.3     55.4     53.6       22     1010     0.00      247     13.2
    02/19/2018 13:45      5.3      301     12.8      295     54.0     55.1     53.6       18     1010     0.00      426     13.2
    02/19/2018 14:00      4.7      296      8.9      306     54.1     55.4     53.2       17     1010     0.00      183     13.2
    02/19/2018 14:15      5.4      288     12.9      269     53.1     53.5     52.7       17     1010     0.00      141     13.2
    02/19/2018 14:30      7.2      314     18.7      344     51.9     53.1     50.5       26     1010     0.00      141     13.3
    02/19/2018 14:45      7.6      337     18.8      332     50.5     51.6     50.1       24     1010     0.00      191     13.3
    02/19/2018 15:00      7.3      342     20.3      337     52.4     53.3     51.6       23     1010     0.00      436     13.3
    02/19/2018 15:15      8.7      336     18.3      298     52.4     52.9     51.5       24     1010     0.00      277     13.3
    02/19/2018 15:30      8.2      336     19.9      354     50.7     51.6     49.8       25     1010     0.00       57     13.3
    02/19/2018 15:45      8.1      341     18.6      338     50.0     50.7     49.5       24     1011     0.00      174     13.3
    02/19/2018 16:00      7.5      333     22.4      337     51.1     51.8     50.6       22     1011     0.00      308     13.3
    02/19/2018 16:15      7.9      341     19.5       49     51.2     51.6     50.7       20     1011     0.00      175     13.3
    02/19/2018 16:30      7.1      329     23.2      328     50.7     51.1     50.4       21     1011     0.00       44     13.3
    02/19/2018 16:45      7.8      334     19.6      335     50.3     50.6     49.9       22     1011     0.00       44     13.3
    02/19/2018 17:00      7.5      334     19.2      328     49.7     50.1     49.4       24     1011     0.00       40     13.3
    02/19/2018 17:15      7.2      343     20.5       25     49.3     49.7     49.0       23     1011     0.00       34     13.4
    02/19/2018 17:30      9.2      336     22.3      344     49.0     49.4     48.5       21     1011     0.00       16     13.4
    02/19/2018 17:45      6.7      337     16.1      324     48.2     48.6     47.8       24     1012     0.00        6     13.4
    02/19/2018 18:00      6.2      332     16.4      314     47.7     48.0     47.3       25     1012     0.00        1     13.4
    02/19/2018 18:15      7.3      339     18.1      352     47.3     47.6     47.1       25     1012     0.00        0     13.4
    02/19/2018 18:30      5.6      343     13.6      354     47.1     47.3     46.8       26     1013     0.00        0     13.4
    02/19/2018 18:45      6.7      342     18.6      326     46.8     47.0     46.5       27     1013     0.00        0     13.4
    02/19/2018 19:00      6.0      328     17.3        2     46.7     47.0     46.4       24     1013     0.00        0     13.4
    02/19/2018 19:15      4.5      321     13.2      344     46.8     47.0     46.5       26     1013     0.00        0     13.4
    02/19/2018 19:30      4.1      314     11.8      311     46.5     46.7     46.3       26     1013     0.00        0     13.4
    02/19/2018 19:45      4.8      316     11.2      335     46.4     46.7     46.0       27     1013     0.00        0     13.4
    02/19/2018 20:00      4.8      323     19.1      354     46.1     46.4     45.9       26     1013     0.00        0     13.4
    02/19/2018 20:15      5.7      316     16.1      332     46.3     46.5     46.1       26     1013     0.00        0     13.5
    02/19/2018 20:30      4.9      314     13.2      307     45.9     46.3     45.6       27     1013     0.00        0     13.5
    02/19/2018 20:45      3.7      308     10.4      334     45.6     45.9     45.3       28     1014     0.00        0     13.5
    02/19/2018 21:00      2.9      313      9.2        4     45.2     45.5     45.0       28     1014     0.00        0     13.5
    02/19/2018 21:15      2.4      301      7.9      325     45.0     45.3     44.7       27     1014     0.00        0     13.5
    02/19/2018 21:30      3.4      289      9.2      293     45.0     45.3     44.8       27     1014     0.00        0     13.5
    02/19/2018 21:45      3.2      289      8.2      277     45.1     45.3     44.9       27     1015     0.00        0     13.5
    02/19/2018 22:00      2.4      275      7.8      289     45.0     45.3     44.7       27     1015     0.00        0     13.5
    02/19/2018 22:15      3.5      248     13.0      252     44.8     45.2     44.5       26     1015     0.00        0     13.5
    02/19/2018 22:30      4.5      252      9.6      289     44.9     45.3     44.7       27     1015     0.00        0     13.5
    02/19/2018 22:45      3.9      253     11.7      252     44.5     44.9     44.0       28     1015     0.00        0     13.5
    02/19/2018 23:00      3.9      270      9.0      274     44.5     44.9     44.1       29     1015     0.00        0     13.5
    02/19/2018 23:15      3.2      249      8.4      211     44.1     44.4     43.8       30     1016     0.00        0     13.5
    02/19/2018 23:30      2.5      252     12.1      239     43.8     44.3     43.5       30     1016     0.00        0     13.5
    02/19/2018 23:45      2.1      263      7.5      171     43.4     43.9     42.9       29     1016     0.00        0     13.5
    02/20/2018 00:00      0.8      238      3.2      328     43.1     43.9     42.3       31     1016     0.00        0     13.5
    02/20/2018 00:15      2.5      266      7.8      270     43.1     44.3     42.3       29     1016     0.00        0     13.5
    02/20/2018 00:30      3.5      230     11.7      256     43.2     44.1     42.5       29     1016     0.00        0     13.5
    02/20/2018 00:45      4.7      263     15.3      265     43.9     44.4     43.3       29     1016     0.00        0     13.5
    02/20/2018 01:00      3.1      284      8.9      253     43.8     44.2     43.0       30     1016     0.00        0     13.5
    02/20/2018 01:15      3.4      332      9.9       -0     43.3     43.8     42.7       30     1016     0.00        0     13.5
    02/20/2018 01:30      2.7      301      7.9      224     43.4     43.8     43.0       31     1016     0.00        0     13.5
    02/20/2018 01:45      2.5      293     10.8        5     43.7     44.0     43.3       30     1016     0.00        0     13.5
    02/20/2018 02:00      1.2      245      4.3      263     43.0     43.8     42.4       32     1016     0.00        0     13.5
    02/20/2018 02:15      2.2      275      8.4      272     42.7     43.3     42.0       32     1016     0.00        0     13.5
    02/20/2018 02:30      2.4       10      6.8      354     42.9     43.2     42.4       31     1016     0.00        0     13.5
    02/20/2018 02:45      2.3      330      6.7       16     42.8     43.2     42.4       32     1016     0.00        0     13.6
    02/20/2018 03:00      1.9      351      5.3      347     42.0     42.6     41.6       32     1016     0.00        0     13.6
    02/20/2018 03:15      2.0      347      8.3      105     41.6     42.0     41.2       33     1016     0.00        0     13.6
    02/20/2018 03:30      3.2      313     10.1      302     42.1     42.6     41.4       31     1016     0.00        0     13.6
    02/20/2018 03:45      1.1      318      6.9        2     41.7     42.4     41.0       31     1016     0.00        0     13.6
    02/20/2018 04:00      2.0      303      7.9      323     41.7     42.0     41.2       31     1016     0.00        0     13.6
    02/20/2018 04:15      1.4      324      6.6        9     41.1     41.5     40.3       29     1016     0.00        0     13.6
    02/20/2018 04:30      1.7      338      9.1       16     41.1     41.6     40.3       27     1016     0.00        0     13.6
    02/20/2018 04:45      2.3      332      7.6      326     41.1     41.5     40.8       25     1016     0.00        0     13.6
    02/20/2018 05:00      3.7      343      8.7       37     41.6     41.9     41.3       25     1016     0.00        0     13.6
    02/20/2018 05:15      4.8      354     14.4       18     41.9     42.2     41.7       24     1017     0.00        0     13.6
    02/20/2018 05:30      5.8      352     16.3      338     42.0     42.2     41.7       24     1017     0.00        0     13.6
    02/20/2018 05:45      6.3      353     13.3        6     42.1     42.3     42.0       24     1017     0.00        0     13.6
    02/20/2018 06:00      5.9      348     17.4        5     42.2     42.5     42.0       24     1017     0.00        0     13.6
    02/20/2018 06:15      6.6      348     15.4        7     42.2     42.5     42.0       24     1017     0.00        0     13.6
    02/20/2018 06:30      5.4      349     15.0      336     42.4     42.6     42.2       23     1018     0.00        1     13.6
    02/20/2018 06:45      6.2      357     13.7       12     42.4     42.6     42.2       23     1018     0.00        6     13.6
    02/20/2018 07:00      8.1        0     16.4       -0     42.7     42.9     42.4       23     1018     0.00       15     13.5
    02/20/2018 07:15      7.2        2     16.8        0     42.8     43.1     42.5       22     1018     0.00       32     13.5
    02/20/2018 07:30      7.6      358     16.1       13     43.5     44.4     42.9       22     1018     0.00       98     13.5
    02/20/2018 07:45      7.3      351     18.6       12     44.6     45.2     44.1       18     1019     0.00      165     13.5
    02/20/2018 08:00      7.9      356     18.9      350     45.4     45.9     44.9       19     1019     0.00      211     13.4
    02/20/2018 08:15      7.4      359     17.5       23     46.0     46.4     45.6       18     1019     0.00      258     13.4
    02/20/2018 08:30      7.5        0     15.4        8     46.7     47.1     46.2       18     1019     0.00      303     13.4
    02/20/2018 08:45      6.1      351     14.6      329     47.4     47.8     46.8       18     1019     0.00      349     13.4
    02/20/2018 09:00      5.8      353     14.1        0     47.9     48.5     47.0       18     1019     0.00      393     13.3
    02/20/2018 09:15      5.5      351     17.6        7     48.7     49.1     48.2       17     1019     0.00      436     13.3
    02/20/2018 09:30      5.5      345     18.9      337     49.3     49.8     48.8       17     1019     0.00      476     13.3
    02/20/2018 09:45      5.8      341     15.0      337     49.5     50.1     49.1       17     1019     0.00      513     13.3
    02/20/2018 10:00      6.8      342     15.1      333     50.2     50.6     49.8       15     1019     0.00      548     13.3
    02/20/2018 10:15      5.4      330     15.7      350     50.6     51.7     50.0       15     1019     0.00      578     13.3
    02/20/2018 10:30      4.3      330     11.1      317     51.7     52.3     51.3       15     1019     0.00      606     13.3
    02/20/2018 10:45      3.7      330     11.7      318     52.3     53.2     51.6       14     1019     0.00      630     13.2
    02/20/2018 11:00      2.6      326      9.6      353     53.2     54.1     52.7       14     1019     0.00      651     13.2
    02/20/2018 11:15      2.9      340      9.2      355     54.5     55.3     53.5       14     1019     0.00      671     13.2
    02/20/2018 11:30      2.0        2      8.2        8     54.0     54.7     53.3       13     1019     0.00      684     13.2
    02/20/2018 11:45      1.2      313      3.9       28     54.4     55.1     53.8       12     1019     0.00      693     13.2
    02/20/2018 12:00      2.1      227      5.5      182     54.6     56.0     53.8       13     1019     0.00      700     13.2
    02/20/2018 12:15      2.0      277      4.4      231     55.7     56.9     55.2       12     1018     0.00      701     13.2
    02/20/2018 12:30      3.2      327      6.8      268     56.4     57.3     55.7       13     1018     0.00      700     13.2
    02/20/2018 12:45      2.6      242      6.8      217     55.5     56.3     54.6       12     1018     0.00      694     13.2
    02/20/2018 13:00      2.6      203      6.4      193     56.2     57.3     54.9       12     1018     0.00      684     13.2
    02/20/2018 13:15      2.9       16      6.8       18     56.6     57.3     55.8       13     1018     0.00      673     13.2
    02/20/2018 13:30      3.7       69      9.5       63     56.1     56.5     55.7       13     1017     0.00      652     13.2
    02/20/2018 13:45      4.5       88     10.3       79     56.8     57.6     56.1       12     1017     0.00      631     13.2
    02/20/2018 14:00      2.0      324      6.5      352     57.2     58.0     56.5       11     1017     0.00      607     13.2
    02/20/2018 14:15      3.5      299      8.6      311     57.5     58.2     56.9       12     1017     0.00      579     13.2
    02/20/2018 14:30      1.5       11      5.5       34     58.1     59.2     57.1       11     1017     0.00      550     13.2
    02/20/2018 14:45      3.8      102      8.6       83     57.5     58.3     56.8       11     1017     0.00      517     13.2
    02/20/2018 15:00      2.6      136      5.8       92     57.4     58.4     56.6       11     1017     0.00      479     13.2
    02/20/2018 15:15      4.0      253     10.1      169     57.9     58.5     57.0       11     1017     0.00      438     13.2
    02/20/2018 15:30      2.7      249      8.4      253     57.9     58.7     56.9        9     1017     0.00      394     13.2
    02/20/2018 15:45      2.9      256      6.1      243     58.3     58.7     57.8       10     1017     0.00      349     13.2
    02/20/2018 16:00      2.3      242      5.5      277     58.6     59.0     58.3       10     1017     0.00      302     13.2
    02/20/2018 16:15      5.3      255     11.3      244     57.4     58.7     55.7       17     1017     0.00      181     13.2
    02/20/2018 16:30      6.3      225     14.5      195     54.7     55.8     54.0       21     1017     0.00       46     13.2
    02/20/2018 16:45      7.3      253     14.9      259     53.9     54.2     53.3       22     1017     0.00       46     13.2
    02/20/2018 17:00      7.2      257     15.3      232     53.1     53.5     52.6       24     1017     0.00       43     13.3
    02/20/2018 17:15      6.8      255     14.6      251     52.4     52.8     51.9       24     1017     0.00       30     13.3
    02/20/2018 17:30      7.3      258     18.1      255     51.4     52.1     50.7       26     1017     0.00       17     13.3
    02/20/2018 17:45      7.7      249     15.8      252     50.5     51.0     50.0       25     1017     0.00        7     13.3
    02/20/2018 18:00      6.8      244     17.2      263     49.9     50.3     49.5       25     1017     0.00        2     13.3
    02/20/2018 18:15      5.8      260     13.7      284     49.4     49.8     49.0       25     1018     0.00        0     13.4
    02/20/2018 18:30      6.0      257     13.0      241     49.0     49.2     48.7       26     1018     0.00        0     13.4
    02/20/2018 18:45      6.5      260     11.6      264     48.7     49.0     48.5       28     1018     0.00        0     13.4
    02/20/2018 19:00      3.6      269      6.7      260     48.3     48.8     48.0       30     1018     0.00        0     13.4
    02/20/2018 19:15      2.9      279      5.3      291     47.9     48.1     47.5       32     1018     0.00        0     13.4
    02/20/2018 19:30      2.7      290      5.7      280     47.2     47.6     47.0       33     1018     0.00        0     13.4
    02/20/2018 19:45      1.7      294      4.9      299     46.9     47.2     46.5       34     1018     0.00        0     13.4
    02/20/2018 20:00      1.2      308      3.6      355     46.9     47.3     46.4       35     1019     0.00        0     13.4
    02/20/2018 20:15      0.5      301      1.9      289     46.6     47.2     46.0       37     1019     0.00        0     13.4
    02/20/2018 20:30      0.6      290      2.5      286     45.9     46.2     45.5       39     1019     0.00        0     13.4
    02/20/2018 20:45      1.3      285      3.2      289     45.7     46.1     45.4       39     1019     0.00        0     13.5
    02/20/2018 21:00      0.5      332      2.0      343     45.5     45.7     45.2       38     1019     0.00        0     13.5
    02/20/2018 21:15      0.7      335      2.2      337     44.6     45.4     43.8       38     1019     0.00        0     13.5
    02/20/2018 21:30      0.7        6      5.3        0     43.8     44.3     43.6       33     1019     0.00        0     13.5
    02/20/2018 21:45      1.6      354      4.1       29     44.6     44.9     44.3       31     1019     0.00        0     13.5
    02/20/2018 22:00      0.9        1      3.9      345     44.5     45.1     43.9       31     1019     0.00        0     13.5
    02/20/2018 22:15      0.4       43      2.5       51     43.8     44.4     42.9       34     1019     0.00        0     13.5
    02/20/2018 22:30      0.3      300      2.0      299     42.1     42.9     41.5       38     1019     0.00        0     13.5
    02/20/2018 22:45      0.3      280      1.9      280     41.2     41.5     40.9       38     1018     0.00        0     13.5
    02/20/2018 23:00      0.0      280      0.6      271     40.7     41.0     40.4       40     1018     0.00        0     13.5
    02/20/2018 23:15      0.4      269      2.0      256     40.5     40.8     40.2       42     1018     0.00        0     13.6
    02/20/2018 23:30      0.1      272      1.4      244     39.9     40.4     39.5       47     1018     0.00        0     13.6
    02/20/2018 23:45      0.6      294      1.7      281     39.9     40.1     39.5       49     1018     0.00        0     13.6
    02/21/2018 00:00      0.0      300      0.9      308     39.7     40.1     39.2       49     1018     0.00        0     13.6
    02/21/2018 00:15      0.0      291      0.9      286     39.0     39.4     38.7       51     1018     0.00        0     13.6
    02/21/2018 00:30      0.5      335      1.5      337     39.3     39.7     38.8       49     1018     0.00        0     13.6
    02/21/2018 00:45      0.6      350      1.8      355     40.3     40.7     39.6       48     1018     0.00        0     13.6
    02/21/2018 01:00      1.3       21      3.9        9     41.5     42.2     40.5       45     1018     0.00        0     13.6
    02/21/2018 01:15      0.2       16      2.1       12     41.9     42.4     41.5       48     1018     0.00        0     13.6
    02/21/2018 01:30      2.1       84      5.2       91     41.9     42.5     41.4       45     1018     0.00        0     13.6
    02/21/2018 01:45      0.9       81      4.4       60     41.2     41.6     40.9       38     1018     0.00        0     13.6
    02/21/2018 02:00      3.4       39      6.4       85     42.9     44.1     41.2       30     1018     0.00        0     13.5
    02/21/2018 02:15      2.6       51      5.2       51     44.8     45.4     44.1       28     1018     0.00        0     13.5
    02/21/2018 02:30      1.9      122      4.1       84     44.8     45.4     43.6       37     1018     0.00        0     13.5
    02/21/2018 02:45      1.1      193      3.3      158     42.7     43.8     41.9       46     1017     0.00        0     13.5
    02/21/2018 03:00      0.7      289      2.3      275     41.8     42.2     41.5       48     1017     0.00        0     13.5
    02/21/2018 03:15      0.3      298      2.7      288     41.6     41.8     41.3       48     1017     0.00        0     13.5
    02/21/2018 03:30      0.0      140      1.0      141     41.2     41.5     40.8       49     1017     0.00        0     13.5
    02/21/2018 03:45      1.2      265      3.1      256     41.0     41.1     40.8       50     1017     0.00        0     13.5
    02/21/2018 04:00      0.5      313      2.9      250     41.2     41.5     40.9       50     1017     0.00        0     13.5
    02/21/2018 04:15      0.0      330      1.1      340     41.3     41.5     41.0       50     1017     0.00        0     13.5
    02/21/2018 04:30      0.3      343      1.1      295     40.8     41.2     40.6       53     1017     0.00        0     13.5
    02/21/2018 04:45      0.4      318      2.2      329     40.6     40.9     40.3       51     1017     0.00        0     13.5
    02/21/2018 05:00      0.8      336      2.3      350     41.5     42.0     40.7       49     1017     0.00        0     13.5
    02/21/2018 05:15      0.0        0      0.0      332     41.4     41.9     40.7       50     1017     0.00        0     13.5
    02/21/2018 05:30      0.6       98      2.1      144     40.3     40.9     40.0       52     1017     0.00        0     13.6
    02/21/2018 05:45      0.3      271      1.2      254     39.4     40.2     38.9       54     1017     0.00        0     13.6
    02/21/2018 06:00      0.9       39      2.1       40     39.7     40.2     39.0       49     1017     0.00        0     13.6
    02/21/2018 06:15      1.1      358      2.5        0     39.2     39.8     38.8       48     1017     0.00        0     13.6
    02/21/2018 06:30      0.9      283      3.0      258     38.4     39.0     37.5       52     1018     0.00        1     13.6
    02/21/2018 06:45      0.7      268      2.1      256     37.5     37.8     37.2       55     1018     0.00        5     13.6
    02/21/2018 07:00      0.0      297      0.9      298     37.9     38.1     37.4       57     1018     0.00       11     13.6